sensor_id;sensor_type;location;lat;lon;timestamp;pressure;altitude;pressure_sealevel;temperature
20289;BMP180;10303;51.960;8.372;2023-07-29T00:01:20;99720.00;;;23.40
20289;BMP180;10303;51.960;8.372;2023-07-29T00:03:46;99715.00;;;23.40
20289;BMP180;10303;51.960;8.372;2023-07-29T00:06:12;99705.00;;;23.40
20289;BMP180;10303;51.960;8.372;2023-07-29T00:08:38;99712.00;;;23.50
20289;BMP180;10303;51.960;8.372;2023-07-29T00:11:04;99698.00;;;23.40
20289;BMP180;10303;51.960;8.372;2023-07-29T00:13:30;99704.00;;;23.40
20289;BMP180;10303;51.960;8.372;2023-07-29T00:15:56;99702.00;;;23.40
20289;BMP180;10303;51.960;8.372;2023-07-29T00:18:22;99700.00;;;23.40
20289;BMP180;10303;51.960;8.372;2023-07-29T00:20:49;99701.00;;;23.40
20289;BMP180;10303;51.960;8.372;2023-07-29T00:23:17;99702.00;;;23.40
20289;BMP180;10303;51.960;8.372;2023-07-29T00:25:47;99701.00;;;23.50
20289;BMP180;10303;51.960;8.372;2023-07-29T00:28:13;99699.00;;;23.50
20289;BMP180;10303;51.960;8.372;2023-07-29T00:30:39;99699.00;;;23.50
20289;BMP180;10303;51.960;8.372;2023-07-29T00:33:05;99700.00;;;23.40
20289;BMP180;10303;51.960;8.372;2023-07-29T00:35:31;99691.00;;;23.50
20289;BMP180;10303;51.960;8.372;2023-07-29T00:37:59;99695.00;;;23.50
20289;BMP180;10303;51.960;8.372;2023-07-29T00:40:28;99695.00;;;23.40
20289;BMP180;10303;51.960;8.372;2023-07-29T00:42:54;99697.00;;;23.50
20289;BMP180;10303;51.960;8.372;2023-07-29T00:45:21;99691.00;;;23.40
20289;BMP180;10303;51.960;8.372;2023-07-29T00:47:47;99688.00;;;23.50
20289;BMP180;10303;51.960;8.372;2023-07-29T00:50:15;99697.00;;;23.50
20289;BMP180;10303;51.960;8.372;2023-07-29T00:52:41;99698.00;;;23.40
20289;BMP180;10303;51.960;8.372;2023-07-29T00:55:08;99701.00;;;23.40
20289;BMP180;10303;51.960;8.372;2023-07-29T00:57:35;99695.00;;;23.40
20289;BMP180;10303;51.960;8.372;2023-07-29T01:00:02;99687.00;;;23.40
20289;BMP180;10303;51.960;8.372;2023-07-29T01:02:30;99680.00;;;23.40
20289;BMP180;10303;51.960;8.372;2023-07-29T01:04:59;99669.00;;;23.40
20289;BMP180;10303;51.960;8.372;2023-07-29T01:07:39;99673.00;;;23.40
20289;BMP180;10303;51.960;8.372;2023-07-29T01:11:07;99671.00;;;23.40
20289;BMP180;10303;51.960;8.372;2023-07-29T01:13:38;99674.00;;;23.40
20289;BMP180;10303;51.960;8.372;2023-07-29T01:16:29;99674.00;;;23.40
20289;BMP180;10303;51.960;8.372;2023-07-29T01:19:00;99683.00;;;23.40
20289;BMP180;10303;51.960;8.372;2023-07-29T01:21:31;99682.00;;;23.40
20289;BMP180;10303;51.960;8.372;2023-07-29T01:24:00;99681.00;;;23.40
20289;BMP180;10303;51.960;8.372;2023-07-29T01:26:27;99680.00;;;23.40
20289;BMP180;10303;51.960;8.372;2023-07-29T01:28:56;99678.00;;;23.40
20289;BMP180;10303;51.960;8.372;2023-07-29T01:31:27;99682.00;;;23.40
20289;BMP180;10303;51.960;8.372;2023-07-29T01:34:04;99673.00;;;23.40
20289;BMP180;10303;51.960;8.372;2023-07-29T01:36:35;99669.00;;;23.40
20289;BMP180;10303;51.960;8.372;2023-07-29T01:39:05;99665.00;;;23.40
20289;BMP180;10303;51.960;8.372;2023-07-29T01:41:32;99660.00;;;23.40
20289;BMP180;10303;51.960;8.372;2023-07-29T01:43:59;99650.00;;;23.40
20289;BMP180;10303;51.960;8.372;2023-07-29T01:46:26;99647.00;;;23.40
20289;BMP180;10303;51.960;8.372;2023-07-29T01:48:52;99659.00;;;23.40
20289;BMP180;10303;51.960;8.372;2023-07-29T01:51:18;99657.00;;;23.30
20289;BMP180;10303;51.960;8.372;2023-07-29T01:53:44;99646.00;;;23.30
20289;BMP180;10303;51.960;8.372;2023-07-29T01:56:10;99645.00;;;23.30
20289;BMP180;10303;51.960;8.372;2023-07-29T01:58:40;99633.00;;;23.30
20289;BMP180;10303;51.960;8.372;2023-07-29T02:01:06;99636.00;;;23.30
20289;BMP180;10303;51.960;8.372;2023-07-29T02:03:32;99641.00;;;23.20
20289;BMP180;10303;51.960;8.372;2023-07-29T02:05:58;99642.00;;;23.20
20289;BMP180;10303;51.960;8.372;2023-07-29T02:08:24;99653.00;;;23.20
20289;BMP180;10303;51.960;8.372;2023-07-29T02:10:50;99647.00;;;23.20
20289;BMP180;10303;51.960;8.372;2023-07-29T02:13:16;99643.00;;;23.20
20289;BMP180;10303;51.960;8.372;2023-07-29T02:15:42;99642.00;;;23.20
20289;BMP180;10303;51.960;8.372;2023-07-29T02:18:09;99647.00;;;23.10
20289;BMP180;10303;51.960;8.372;2023-07-29T02:20:35;99644.00;;;23.10
20289;BMP180;10303;51.960;8.372;2023-07-29T02:23:00;99649.00;;;23.10
20289;BMP180;10303;51.960;8.372;2023-07-29T02:25:27;99648.00;;;23.10
20289;BMP180;10303;51.960;8.372;2023-07-29T02:27:53;99651.00;;;23.00
20289;BMP180;10303;51.960;8.372;2023-07-29T02:30:21;99649.00;;;23.00
20289;BMP180;10303;51.960;8.372;2023-07-29T02:32:47;99641.00;;;23.00
20289;BMP180;10303;51.960;8.372;2023-07-29T02:35:13;99639.00;;;23.00
20289;BMP180;10303;51.960;8.372;2023-07-29T02:37:39;99634.00;;;23.00
20289;BMP180;10303;51.960;8.372;2023-07-29T02:40:05;99640.00;;;23.00
20289;BMP180;10303;51.960;8.372;2023-07-29T02:42:32;99637.00;;;23.00
20289;BMP180;10303;51.960;8.372;2023-07-29T02:44:58;99631.00;;;23.00
20289;BMP180;10303;51.960;8.372;2023-07-29T02:47:24;99631.00;;;23.00
20289;BMP180;10303;51.960;8.372;2023-07-29T02:49:50;99643.00;;;23.00
20289;BMP180;10303;51.960;8.372;2023-07-29T02:52:16;99646.00;;;23.00
20289;BMP180;10303;51.960;8.372;2023-07-29T02:54:42;99637.00;;;23.00
20289;BMP180;10303;51.960;8.372;2023-07-29T02:57:08;99633.00;;;23.00
20289;BMP180;10303;51.960;8.372;2023-07-29T02:59:34;99625.00;;;23.00
20289;BMP180;10303;51.960;8.372;2023-07-29T03:02:01;99628.00;;;22.90
20289;BMP180;10303;51.960;8.372;2023-07-29T03:04:27;99622.00;;;22.90
20289;BMP180;10303;51.960;8.372;2023-07-29T03:06:53;99624.00;;;22.90
20289;BMP180;10303;51.960;8.372;2023-07-29T03:09:19;99612.00;;;22.90
20289;BMP180;10303;51.960;8.372;2023-07-29T03:11:45;99613.00;;;22.90
20289;BMP180;10303;51.960;8.372;2023-07-29T03:14:12;99621.00;;;22.90
20289;BMP180;10303;51.960;8.372;2023-07-29T03:16:38;99615.00;;;22.90
20289;BMP180;10303;51.960;8.372;2023-07-29T03:19:04;99606.00;;;22.90
20289;BMP180;10303;51.960;8.372;2023-07-29T03:21:32;99616.00;;;22.90
20289;BMP180;10303;51.960;8.372;2023-07-29T03:23:58;99615.00;;;22.90
20289;BMP180;10303;51.960;8.372;2023-07-29T03:26:24;99613.00;;;22.90
20289;BMP180;10303;51.960;8.372;2023-07-29T03:28:51;99618.00;;;22.90
20289;BMP180;10303;51.960;8.372;2023-07-29T03:31:17;99617.00;;;22.90
20289;BMP180;10303;51.960;8.372;2023-07-29T03:33:43;99608.00;;;22.90
20289;BMP180;10303;51.960;8.372;2023-07-29T03:36:09;99615.00;;;22.90
20289;BMP180;10303;51.960;8.372;2023-07-29T03:38:35;99613.00;;;22.90
20289;BMP180;10303;51.960;8.372;2023-07-29T03:41:09;99615.00;;;22.90
20289;BMP180;10303;51.960;8.372;2023-07-29T03:43:35;99610.00;;;22.90
20289;BMP180;10303;51.960;8.372;2023-07-29T03:46:02;99606.00;;;22.90
20289;BMP180;10303;51.960;8.372;2023-07-29T03:48:28;99601.00;;;22.90
20289;BMP180;10303;51.960;8.372;2023-07-29T03:50:54;99599.00;;;22.90
20289;BMP180;10303;51.960;8.372;2023-07-29T03:53:20;99603.00;;;22.90
20289;BMP180;10303;51.960;8.372;2023-07-29T03:55:46;99614.00;;;22.90
20289;BMP180;10303;51.960;8.372;2023-07-29T03:58:12;99605.00;;;23.00
20289;BMP180;10303;51.960;8.372;2023-07-29T04:00:39;99600.00;;;23.00
20289;BMP180;10303;51.960;8.372;2023-07-29T04:03:05;99591.00;;;23.00
20289;BMP180;10303;51.960;8.372;2023-07-29T04:05:32;99593.00;;;23.00
20289;BMP180;10303;51.960;8.372;2023-07-29T04:07:58;99592.00;;;23.00
20289;BMP180;10303;51.960;8.372;2023-07-29T04:10:24;99596.00;;;23.00
20289;BMP180;10303;51.960;8.372;2023-07-29T04:12:50;99591.00;;;23.00
20289;BMP180;10303;51.960;8.372;2023-07-29T04:15:17;99594.00;;;23.00
20289;BMP180;10303;51.960;8.372;2023-07-29T04:17:43;99587.00;;;23.00
20289;BMP180;10303;51.960;8.372;2023-07-29T04:20:10;99584.00;;;23.00
20289;BMP180;10303;51.960;8.372;2023-07-29T04:22:37;99584.00;;;23.10
20289;BMP180;10303;51.960;8.372;2023-07-29T04:25:04;99601.00;;;23.10
20289;BMP180;10303;51.960;8.372;2023-07-29T04:27:30;99600.00;;;23.10
20289;BMP180;10303;51.960;8.372;2023-07-29T04:29:57;99600.00;;;23.10
20289;BMP180;10303;51.960;8.372;2023-07-29T04:32:23;99596.00;;;23.10
20289;BMP180;10303;51.960;8.372;2023-07-29T04:34:49;99586.00;;;23.10
20289;BMP180;10303;51.960;8.372;2023-07-29T04:37:15;99596.00;;;23.10
20289;BMP180;10303;51.960;8.372;2023-07-29T04:39:41;99589.00;;;23.10
20289;BMP180;10303;51.960;8.372;2023-07-29T04:42:07;99600.00;;;23.10
20289;BMP180;10303;51.960;8.372;2023-07-29T04:44:34;99587.00;;;23.10
20289;BMP180;10303;51.960;8.372;2023-07-29T04:47:02;99585.00;;;23.10
20289;BMP180;10303;51.960;8.372;2023-07-29T04:49:28;99582.00;;;23.20
20289;BMP180;10303;51.960;8.372;2023-07-29T04:51:54;99589.00;;;23.20
20289;BMP180;10303;51.960;8.372;2023-07-29T04:54:20;99581.00;;;23.20
20289;BMP180;10303;51.960;8.372;2023-07-29T04:56:47;99581.00;;;23.20
20289;BMP180;10303;51.960;8.372;2023-07-29T04:59:13;99589.00;;;23.20
20289;BMP180;10303;51.960;8.372;2023-07-29T05:01:40;99588.00;;;23.30
20289;BMP180;10303;51.960;8.372;2023-07-29T05:04:09;99577.00;;;23.30
20289;BMP180;10303;51.960;8.372;2023-07-29T05:06:36;99584.00;;;23.30
20289;BMP180;10303;51.960;8.372;2023-07-29T05:09:17;99583.00;;;23.30
20289;BMP180;10303;51.960;8.372;2023-07-29T05:11:49;99586.00;;;23.30
20289;BMP180;10303;51.960;8.372;2023-07-29T05:14:17;99581.00;;;23.30
20289;BMP180;10303;51.960;8.372;2023-07-29T05:16:44;99578.00;;;23.40
20289;BMP180;10303;51.960;8.372;2023-07-29T05:19:11;99572.00;;;23.40
20289;BMP180;10303;51.960;8.372;2023-07-29T05:21:39;99566.00;;;23.40
20289;BMP180;10303;51.960;8.372;2023-07-29T05:24:05;99553.00;;;23.50
20289;BMP180;10303;51.960;8.372;2023-07-29T05:26:31;99560.00;;;23.50
20289;BMP180;10303;51.960;8.372;2023-07-29T05:28:58;99571.00;;;23.50
20289;BMP180;10303;51.960;8.372;2023-07-29T05:31:24;99570.00;;;23.50
20289;BMP180;10303;51.960;8.372;2023-07-29T05:33:50;99573.00;;;23.60
20289;BMP180;10303;51.960;8.372;2023-07-29T05:36:18;99556.00;;;23.60
20289;BMP180;10303;51.960;8.372;2023-07-29T05:38:44;99564.00;;;23.60
20289;BMP180;10303;51.960;8.372;2023-07-29T05:41:10;99561.00;;;23.70
20289;BMP180;10303;51.960;8.372;2023-07-29T05:43:37;99552.00;;;23.70
20289;BMP180;10303;51.960;8.372;2023-07-29T05:46:03;99547.00;;;23.70
20289;BMP180;10303;51.960;8.372;2023-07-29T05:48:30;99548.00;;;23.80
20289;BMP180;10303;51.960;8.372;2023-07-29T05:50:56;99553.00;;;23.80
20289;BMP180;10303;51.960;8.372;2023-07-29T05:53:22;99560.00;;;23.80
20289;BMP180;10303;51.960;8.372;2023-07-29T05:55:49;99566.00;;;23.80
20289;BMP180;10303;51.960;8.372;2023-07-29T05:58:15;99571.00;;;23.90
20289;BMP180;10303;51.960;8.372;2023-07-29T06:00:42;99575.00;;;23.90
20289;BMP180;10303;51.960;8.372;2023-07-29T06:03:08;99581.00;;;23.90
20289;BMP180;10303;51.960;8.372;2023-07-29T06:05:34;99575.00;;;23.90
20289;BMP180;10303;51.960;8.372;2023-07-29T06:08:00;99584.00;;;23.90
20289;BMP180;10303;51.960;8.372;2023-07-29T06:10:26;99583.00;;;23.90
20289;BMP180;10303;51.960;8.372;2023-07-29T06:12:52;99596.00;;;23.90
20289;BMP180;10303;51.960;8.372;2023-07-29T06:15:18;99587.00;;;23.90
20289;BMP180;10303;51.960;8.372;2023-07-29T06:17:47;99596.00;;;23.90
20289;BMP180;10303;51.960;8.372;2023-07-29T06:20:13;99598.00;;;23.90
20289;BMP180;10303;51.960;8.372;2023-07-29T06:22:42;99599.00;;;23.80
20289;BMP180;10303;51.960;8.372;2023-07-29T06:25:09;99598.00;;;23.90
20289;BMP180;10303;51.960;8.372;2023-07-29T06:27:35;99588.00;;;23.90
20289;BMP180;10303;51.960;8.372;2023-07-29T06:30:03;99574.00;;;23.90
20289;BMP180;10303;51.960;8.372;2023-07-29T06:32:31;99554.00;;;23.90
20289;BMP180;10303;51.960;8.372;2023-07-29T06:34:58;99561.00;;;23.90
20289;BMP180;10303;51.960;8.372;2023-07-29T06:37:25;99553.00;;;24.00
20289;BMP180;10303;51.960;8.372;2023-07-29T06:39:52;99568.00;;;24.00
20289;BMP180;10303;51.960;8.372;2023-07-29T06:42:24;99569.00;;;24.00
20289;BMP180;10303;51.960;8.372;2023-07-29T06:44:50;99572.00;;;24.10
20289;BMP180;10303;51.960;8.372;2023-07-29T06:47:16;99586.00;;;24.10
20289;BMP180;10303;51.960;8.372;2023-07-29T06:49:42;99597.00;;;24.20
20289;BMP180;10303;51.960;8.372;2023-07-29T06:52:08;99603.00;;;24.20
20289;BMP180;10303;51.960;8.372;2023-07-29T06:54:34;99600.00;;;24.20
20289;BMP180;10303;51.960;8.372;2023-07-29T06:57:00;99611.00;;;24.10
20289;BMP180;10303;51.960;8.372;2023-07-29T06:59:26;99619.00;;;24.10
20289;BMP180;10303;51.960;8.372;2023-07-29T07:01:52;99626.00;;;24.10
20289;BMP180;10303;51.960;8.372;2023-07-29T07:04:18;99627.00;;;24.00
20289;BMP180;10303;51.960;8.372;2023-07-29T07:06:44;99627.00;;;23.90
20289;BMP180;10303;51.960;8.372;2023-07-29T07:09:10;99646.00;;;23.90
20289;BMP180;10303;51.960;8.372;2023-07-29T07:11:36;99644.00;;;23.80
20289;BMP180;10303;51.960;8.372;2023-07-29T07:14:02;99647.00;;;23.80
20289;BMP180;10303;51.960;8.372;2023-07-29T07:16:28;99646.00;;;23.70
20289;BMP180;10303;51.960;8.372;2023-07-29T07:18:57;99648.00;;;23.60
20289;BMP180;10303;51.960;8.372;2023-07-29T07:21:23;99637.00;;;23.60
20289;BMP180;10303;51.960;8.372;2023-07-29T07:23:50;99629.00;;;23.60
20289;BMP180;10303;51.960;8.372;2023-07-29T07:26:16;99639.00;;;23.60
20289;BMP180;10303;51.960;8.372;2023-07-29T07:28:42;99648.00;;;23.60
20289;BMP180;10303;51.960;8.372;2023-07-29T07:31:08;99644.00;;;23.60
20289;BMP180;10303;51.960;8.372;2023-07-29T07:33:34;99634.00;;;23.70
20289;BMP180;10303;51.960;8.372;2023-07-29T07:36:00;99645.00;;;23.70
20289;BMP180;10303;51.960;8.372;2023-07-29T07:38:26;99640.00;;;23.80
20289;BMP180;10303;51.960;8.372;2023-07-29T07:40:55;99647.00;;;23.80
20289;BMP180;10303;51.960;8.372;2023-07-29T07:43:22;99647.00;;;23.80
20289;BMP180;10303;51.960;8.372;2023-07-29T07:45:48;99650.00;;;23.90
20289;BMP180;10303;51.960;8.372;2023-07-29T07:48:14;99642.00;;;23.90
20289;BMP180;10303;51.960;8.372;2023-07-29T07:50:43;99641.00;;;23.90
20289;BMP180;10303;51.960;8.372;2023-07-29T07:53:09;99634.00;;;23.90
20289;BMP180;10303;51.960;8.372;2023-07-29T07:55:35;99644.00;;;24.00
20289;BMP180;10303;51.960;8.372;2023-07-29T07:58:01;99636.00;;;24.00
20289;BMP180;10303;51.960;8.372;2023-07-29T08:00:26;99637.00;;;24.00
20289;BMP180;10303;51.960;8.372;2023-07-29T08:02:52;99622.00;;;24.00
20289;BMP180;10303;51.960;8.372;2023-07-29T08:05:19;99646.00;;;24.10
20289;BMP180;10303;51.960;8.372;2023-07-29T08:07:45;99649.00;;;24.00
20289;BMP180;10303;51.960;8.372;2023-07-29T08:10:11;99656.00;;;24.00
20289;BMP180;10303;51.960;8.372;2023-07-29T08:12:37;99644.00;;;24.00
20289;BMP180;10303;51.960;8.372;2023-07-29T08:15:03;99644.00;;;24.00
20289;BMP180;10303;51.960;8.372;2023-07-29T08:17:29;99649.00;;;24.10
20289;BMP180;10303;51.960;8.372;2023-07-29T08:19:55;99639.00;;;24.10
20289;BMP180;10303;51.960;8.372;2023-07-29T08:22:21;99653.00;;;24.20
20289;BMP180;10303;51.960;8.372;2023-07-29T08:24:47;99652.00;;;24.20
20289;BMP180;10303;51.960;8.372;2023-07-29T08:27:13;99648.00;;;24.10
20289;BMP180;10303;51.960;8.372;2023-07-29T08:29:39;99663.00;;;24.10
20289;BMP180;10303;51.960;8.372;2023-07-29T08:32:05;99673.00;;;24.00
20289;BMP180;10303;51.960;8.372;2023-07-29T08:34:31;99668.00;;;24.00
20289;BMP180;10303;51.960;8.372;2023-07-29T08:36:57;99670.00;;;24.00
20289;BMP180;10303;51.960;8.372;2023-07-29T08:39:24;99658.00;;;24.00
20289;BMP180;10303;51.960;8.372;2023-07-29T08:42:01;99656.00;;;24.00
20289;BMP180;10303;51.960;8.372;2023-07-29T08:44:35;99665.00;;;24.00
20289;BMP180;10303;51.960;8.372;2023-07-29T08:47:03;99652.00;;;24.10
20289;BMP180;10303;51.960;8.372;2023-07-29T08:49:31;99653.00;;;24.10
20289;BMP180;10303;51.960;8.372;2023-07-29T08:51:59;99644.00;;;24.30
20289;BMP180;10303;51.960;8.372;2023-07-29T08:54:26;99642.00;;;24.40
20289;BMP180;10303;51.960;8.372;2023-07-29T08:56:52;99650.00;;;24.60
20289;BMP180;10303;51.960;8.372;2023-07-29T08:59:20;99647.00;;;24.70
20289;BMP180;10303;51.960;8.372;2023-07-29T09:01:47;99651.00;;;24.80
20289;BMP180;10303;51.960;8.372;2023-07-29T09:04:13;99635.00;;;24.90
20289;BMP180;10303;51.960;8.372;2023-07-29T09:06:42;99647.00;;;24.80
20289;BMP180;10303;51.960;8.372;2023-07-29T09:09:08;99654.00;;;24.80
20289;BMP180;10303;51.960;8.372;2023-07-29T09:11:36;99644.00;;;24.80
20289;BMP180;10303;51.960;8.372;2023-07-29T09:14:02;99645.00;;;24.80
20289;BMP180;10303;51.960;8.372;2023-07-29T09:16:28;99648.00;;;25.00
20289;BMP180;10303;51.960;8.372;2023-07-29T09:18:55;99657.00;;;25.10
20289;BMP180;10303;51.960;8.372;2023-07-29T09:21:24;99649.00;;;25.20
20289;BMP180;10303;51.960;8.372;2023-07-29T09:23:52;99654.00;;;25.30
20289;BMP180;10303;51.960;8.372;2023-07-29T09:26:28;99652.00;;;25.40
20289;BMP180;10303;51.960;8.372;2023-07-29T09:28:59;99661.00;;;25.50
20289;BMP180;10303;51.960;8.372;2023-07-29T09:31:28;99661.00;;;25.60
20289;BMP180;10303;51.960;8.372;2023-07-29T09:34:03;99667.00;;;25.80
20289;BMP180;10303;51.960;8.372;2023-07-29T09:36:34;99656.00;;;25.80
20289;BMP180;10303;51.960;8.372;2023-07-29T09:39:00;99667.00;;;26.00
20289;BMP180;10303;51.960;8.372;2023-07-29T09:41:28;99679.00;;;26.10
20289;BMP180;10303;51.960;8.372;2023-07-29T09:44:02;99670.00;;;26.20
20289;BMP180;10303;51.960;8.372;2023-07-29T09:46:37;99691.00;;;26.30
20289;BMP180;10303;51.960;8.372;2023-07-29T09:49:05;99672.00;;;26.40
20289;BMP180;10303;51.960;8.372;2023-07-29T09:51:31;99662.00;;;26.50
20289;BMP180;10303;51.960;8.372;2023-07-29T09:53:57;99667.00;;;26.40
20289;BMP180;10303;51.960;8.372;2023-07-29T09:56:29;99673.00;;;26.30
20289;BMP180;10303;51.960;8.372;2023-07-29T09:58:58;99678.00;;;26.30
20289;BMP180;10303;51.960;8.372;2023-07-29T10:01:25;99675.00;;;26.30
20289;BMP180;10303;51.960;8.372;2023-07-29T10:03:53;99674.00;;;26.30
20289;BMP180;10303;51.960;8.372;2023-07-29T10:06:23;99665.00;;;26.40
20289;BMP180;10303;51.960;8.372;2023-07-29T10:08:50;99665.00;;;26.50
20289;BMP180;10303;51.960;8.372;2023-07-29T10:11:20;99657.00;;;26.50
20289;BMP180;10303;51.960;8.372;2023-07-29T10:13:47;99662.00;;;26.60
20289;BMP180;10303;51.960;8.372;2023-07-29T10:16:14;99664.00;;;26.60
20289;BMP180;10303;51.960;8.372;2023-07-29T10:18:41;99671.00;;;26.70
20289;BMP180;10303;51.960;8.372;2023-07-29T10:21:10;99666.00;;;26.70
20289;BMP180;10303;51.960;8.372;2023-07-29T10:23:49;99669.00;;;26.70
20289;BMP180;10303;51.960;8.372;2023-07-29T10:26:20;99666.00;;;26.80
20289;BMP180;10303;51.960;8.372;2023-07-29T10:28:48;99669.00;;;26.70
20289;BMP180;10303;51.960;8.372;2023-07-29T10:31:18;99674.00;;;26.70
20289;BMP180;10303;51.960;8.372;2023-07-29T10:33:45;99665.00;;;26.80
20289;BMP180;10303;51.960;8.372;2023-07-29T10:36:12;99656.00;;;26.90
20289;BMP180;10303;51.960;8.372;2023-07-29T10:38:41;99664.00;;;27.00
20289;BMP180;10303;51.960;8.372;2023-07-29T10:41:08;99672.00;;;27.10
20289;BMP180;10303;51.960;8.372;2023-07-29T10:43:36;99661.00;;;27.20
20289;BMP180;10303;51.960;8.372;2023-07-29T10:46:20;99667.00;;;27.40
20289;BMP180;10303;51.960;8.372;2023-07-29T10:48:57;99669.00;;;27.40
20289;BMP180;10303;51.960;8.372;2023-07-29T10:51:35;99669.00;;;27.40
20289;BMP180;10303;51.960;8.372;2023-07-29T10:54:12;99668.00;;;27.50
20289;BMP180;10303;51.960;8.372;2023-07-29T10:56:49;99667.00;;;27.50
20289;BMP180;10303;51.960;8.372;2023-07-29T11:02:17;99666.00;;;27.50
20289;BMP180;10303;51.960;8.372;2023-07-29T11:04:51;99664.00;;;27.60
20289;BMP180;10303;51.960;8.372;2023-07-29T11:12:38;99669.00;;;28.00
20289;BMP180;10303;51.960;8.372;2023-07-29T11:17:58;99665.00;;;27.90
20289;BMP180;10303;51.960;8.372;2023-07-29T11:20:32;99665.00;;;27.90
20289;BMP180;10303;51.960;8.372;2023-07-29T11:23:01;99661.00;;;27.90
20289;BMP180;10303;51.960;8.372;2023-07-29T11:25:30;99649.00;;;27.90
20289;BMP180;10303;51.960;8.372;2023-07-29T11:27:59;99663.00;;;28.00
20289;BMP180;10303;51.960;8.372;2023-07-29T11:30:25;99643.00;;;28.20
20289;BMP180;10303;51.960;8.372;2023-07-29T11:32:59;99643.00;;;28.30
20289;BMP180;10303;51.960;8.372;2023-07-29T11:35:26;99653.00;;;28.30
20289;BMP180;10303;51.960;8.372;2023-07-29T11:37:54;99646.00;;;28.20
20289;BMP180;10303;51.960;8.372;2023-07-29T11:40:23;99647.00;;;28.30
20289;BMP180;10303;51.960;8.372;2023-07-29T11:42:52;99649.00;;;28.30
20289;BMP180;10303;51.960;8.372;2023-07-29T11:45:21;99648.00;;;28.30
20289;BMP180;10303;51.960;8.372;2023-07-29T11:47:47;99648.00;;;28.30
20289;BMP180;10303;51.960;8.372;2023-07-29T11:50:15;99659.00;;;28.30
20289;BMP180;10303;51.960;8.372;2023-07-29T11:52:44;99656.00;;;28.40
20289;BMP180;10303;51.960;8.372;2023-07-29T11:55:13;99647.00;;;28.40
20289;BMP180;10303;51.960;8.372;2023-07-29T11:57:42;99645.00;;;28.50
20289;BMP180;10303;51.960;8.372;2023-07-29T12:00:10;99653.00;;;28.40
20289;BMP180;10303;51.960;8.372;2023-07-29T12:02:40;99647.00;;;28.40
20289;BMP180;10303;51.960;8.372;2023-07-29T12:05:09;99651.00;;;28.50
20289;BMP180;10303;51.960;8.372;2023-07-29T12:07:38;99649.00;;;28.50
20289;BMP180;10303;51.960;8.372;2023-07-29T12:10:05;99648.00;;;28.60
20289;BMP180;10303;51.960;8.372;2023-07-29T12:12:32;99649.00;;;28.60
20289;BMP180;10303;51.960;8.372;2023-07-29T12:14:58;99659.00;;;28.60
20289;BMP180;10303;51.960;8.372;2023-07-29T12:17:24;99647.00;;;28.60
20289;BMP180;10303;51.960;8.372;2023-07-29T12:19:54;99654.00;;;28.70
20289;BMP180;10303;51.960;8.372;2023-07-29T12:22:21;99661.00;;;28.70
20289;BMP180;10303;51.960;8.372;2023-07-29T12:24:51;99654.00;;;28.70
20289;BMP180;10303;51.960;8.372;2023-07-29T12:27:22;99648.00;;;28.50
20289;BMP180;10303;51.960;8.372;2023-07-29T12:29:52;99672.00;;;28.40
20289;BMP180;10303;51.960;8.372;2023-07-29T12:32:18;99659.00;;;28.30
20289;BMP180;10303;51.960;8.372;2023-07-29T12:34:44;99662.00;;;28.30
20289;BMP180;10303;51.960;8.372;2023-07-29T12:37:10;99668.00;;;28.20
20289;BMP180;10303;51.960;8.372;2023-07-29T12:39:41;99661.00;;;28.10
20289;BMP180;10303;51.960;8.372;2023-07-29T12:42:08;99657.00;;;27.90
20289;BMP180;10303;51.960;8.372;2023-07-29T12:44:36;99661.00;;;27.80
20289;BMP180;10303;51.960;8.372;2023-07-29T12:47:05;99661.00;;;27.70
20289;BMP180;10303;51.960;8.372;2023-07-29T12:49:32;99658.00;;;27.70
20289;BMP180;10303;51.960;8.372;2023-07-29T12:51:59;99656.00;;;27.80
20289;BMP180;10303;51.960;8.372;2023-07-29T12:54:25;99644.00;;;27.80
20289;BMP180;10303;51.960;8.372;2023-07-29T12:56:51;99647.00;;;27.90
20289;BMP180;10303;51.960;8.372;2023-07-29T12:59:18;99638.00;;;28.00
20289;BMP180;10303;51.960;8.372;2023-07-29T13:01:44;99637.00;;;28.10
20289;BMP180;10303;51.960;8.372;2023-07-29T13:04:10;99634.00;;;28.20
20289;BMP180;10303;51.960;8.372;2023-07-29T13:06:37;99647.00;;;28.30
20289;BMP180;10303;51.960;8.372;2023-07-29T13:09:03;99647.00;;;28.40
20289;BMP180;10303;51.960;8.372;2023-07-29T13:11:29;99639.00;;;28.50
20289;BMP180;10303;51.960;8.372;2023-07-29T13:13:55;99638.00;;;28.70
20289;BMP180;10303;51.960;8.372;2023-07-29T13:16:21;99641.00;;;28.80
20289;BMP180;10303;51.960;8.372;2023-07-29T13:18:47;99638.00;;;28.90
20289;BMP180;10303;51.960;8.372;2023-07-29T13:21:13;99644.00;;;29.00
20289;BMP180;10303;51.960;8.372;2023-07-29T13:23:39;99649.00;;;29.00
20289;BMP180;10303;51.960;8.372;2023-07-29T13:26:05;99648.00;;;29.10
20289;BMP180;10303;51.960;8.372;2023-07-29T13:28:31;99650.00;;;29.10
20289;BMP180;10303;51.960;8.372;2023-07-29T13:30:57;99649.00;;;29.10
20289;BMP180;10303;51.960;8.372;2023-07-29T13:33:24;99642.00;;;29.00
20289;BMP180;10303;51.960;8.372;2023-07-29T13:35:50;99647.00;;;28.90
20289;BMP180;10303;51.960;8.372;2023-07-29T13:38:16;99646.00;;;28.70
20289;BMP180;10303;51.960;8.372;2023-07-29T13:40:42;99647.00;;;28.60
20289;BMP180;10303;51.960;8.372;2023-07-29T13:43:08;99651.00;;;28.60
20289;BMP180;10303;51.960;8.372;2023-07-29T13:45:35;99652.00;;;28.60
20289;BMP180;10303;51.960;8.372;2023-07-29T13:48:01;99656.00;;;28.60
20289;BMP180;10303;51.960;8.372;2023-07-29T13:50:27;99660.00;;;28.50
20289;BMP180;10303;51.960;8.372;2023-07-29T13:52:53;99647.00;;;28.50
20289;BMP180;10303;51.960;8.372;2023-07-29T13:55:19;99647.00;;;28.60
20289;BMP180;10303;51.960;8.372;2023-07-29T13:57:45;99647.00;;;28.60
20289;BMP180;10303;51.960;8.372;2023-07-29T14:00:12;99654.00;;;28.70
20289;BMP180;10303;51.960;8.372;2023-07-29T14:02:38;99649.00;;;28.70
20289;BMP180;10303;51.960;8.372;2023-07-29T14:05:04;99655.00;;;28.70
20289;BMP180;10303;51.960;8.372;2023-07-29T14:07:32;99654.00;;;28.60
20289;BMP180;10303;51.960;8.372;2023-07-29T14:09:58;99652.00;;;28.60
20289;BMP180;10303;51.960;8.372;2023-07-29T14:12:25;99659.00;;;28.60
20289;BMP180;10303;51.960;8.372;2023-07-29T14:14:51;99650.00;;;28.60
20289;BMP180;10303;51.960;8.372;2023-07-29T14:17:17;99653.00;;;28.70
20289;BMP180;10303;51.960;8.372;2023-07-29T14:19:43;99651.00;;;28.70
20289;BMP180;10303;51.960;8.372;2023-07-29T14:22:09;99649.00;;;28.70